Weather at North Arrow Heliport

Public forecast

Using degrees Fahrenheit for public forecast. Weather courtesy of forecast.io.

Closest aviation weather report (METAR) to North Arrow Heliport

Closest report is Northern Colorado Regional Airport, 8.5 nm (15.8 km) SSE. Retrieved 2020/10/28 15:56 UTC (1 hour ago):

KFNL 281556Z 00000KT 10SM CLR 01/M04 A3014 RMK AO2 SLP231 T00111044 FZRANO

Closest aviation forecast (TAF) to North Arrow Heliport

Closest forecast is Cheyenne Regional Jerry Olson Field, 35.6 nm (65.8 km) NNE. Retrieved 2020/10/28 12:21 UTC (5 hours ago):

TAF KCYS 281120Z 2812/2912 28008KT P6SM SKC FM281900 33010G17KT P6SM FEW250 FM290000 31009KT P6SM SKC